createdAt,value
2024-01-11T00:00:00.445Z,103104.34
2024-01-11T00:02:28.989Z,103106.75
2024-01-11T00:04:57.562Z,103113.88
2024-01-11T00:07:25.978Z,102969.31
2024-01-11T00:09:55.770Z,103117.28
2024-01-11T00:12:24.209Z,103122.28
2024-01-11T00:14:52.575Z,103112.75
2024-01-11T00:17:21.030Z,103115.06
2024-01-11T00:19:50.037Z,103113.81
2024-01-11T00:22:18.733Z,103124.47
2024-01-11T00:24:47.105Z,103116.84
2024-01-11T00:27:16.904Z,103113.81
2024-01-11T00:29:45.336Z,103117.81
2024-01-11T00:32:13.854Z,103078.25
2024-01-11T00:34:42.297Z,103101.38
2024-01-11T00:37:10.946Z,103118.34
2024-01-11T00:39:39.302Z,103108.41
2024-01-11T00:42:07.921Z,103115.16
2024-01-11T00:44:37.787Z,103116.66
2024-01-11T00:47:06.626Z,103129.09
2024-01-11T00:49:35.161Z,103123.06
2024-01-11T00:52:03.773Z,103122.28
2024-01-11T00:54:32.166Z,103118.88
2024-01-11T00:57:00.531Z,103124.09
2024-01-11T00:59:28.993Z,103111.63
2024-01-11T01:01:59.024Z,103122.59
2024-01-11T01:04:27.501Z,103122.69
2024-01-11T01:06:56.097Z,103001.16
2024-01-11T01:09:24.707Z,103116.53
2024-01-11T01:11:53.053Z,103120.94
2024-01-11T01:14:21.516Z,103120.03
2024-01-11T01:16:49.971Z,103126.41
2024-01-11T01:19:19.805Z,103124.38
2024-01-11T01:21:48.206Z,103140.50
2024-01-11T01:24:16.592Z,103126.78
2024-01-11T01:26:45.156Z,103088.72
2024-01-11T01:29:14.114Z,103132.91
2024-01-11T01:31:42.571Z,103136.31
2024-01-11T01:34:11.375Z,103132.34
2024-01-11T01:36:41.223Z,103143.63
2024-01-11T01:39:09.786Z,103141.41
2024-01-11T01:41:38.277Z,103151.06
2024-01-11T01:44:06.952Z,103145.72
2024-01-11T01:46:36.474Z,103147.19
2024-01-11T01:49:06.182Z,103158.06
2024-01-11T01:51:35.619Z,103156.56
2024-01-11T01:54:06.559Z,103138.47
2024-01-11T01:56:35.247Z,103155.06
2024-01-11T01:59:04.676Z,103157.69
2024-01-11T02:01:33.144Z,103148.22
2024-01-11T02:04:02.067Z,103160.00
2024-01-11T02:06:33.937Z,103164.28
2024-01-11T02:09:05.391Z,103165.97
2024-01-11T02:11:33.864Z,103133.44
2024-01-11T02:14:02.852Z,103154.53
2024-01-11T02:16:31.263Z,103143.97
2024-01-11T02:18:59.728Z,103133.44
2024-01-11T02:21:31.202Z,103172.91
2024-01-11T02:24:07.248Z,103170.41
2024-01-11T02:26:36.463Z,103165.69
2024-01-11T02:32:10.145Z,103152.06
2024-01-11T02:34:38.993Z,103160.22
2024-01-11T02:37:07.899Z,103159.78
2024-01-11T02:39:38.180Z,103168.84
2024-01-11T02:42:06.861Z,103166.47
2024-01-11T02:44:35.270Z,103167.03
2024-01-11T02:47:03.753Z,103167.03
2024-01-11T02:49:32.274Z,103005.31
2024-01-11T02:52:00.642Z,103173.06
2024-01-11T02:54:29.020Z,103165.00
2024-01-11T02:56:58.760Z,103161.06
2024-01-11T02:59:27.216Z,103170.22
2024-01-11T03:01:55.758Z,103172.81
2024-01-11T03:04:24.078Z,103179.75
2024-01-11T03:06:52.461Z,103165.00
2024-01-11T03:09:20.888Z,103178.41
2024-01-11T03:11:49.682Z,103170.69
2024-01-11T03:14:19.530Z,103167.75
2024-01-11T03:16:48.036Z,103174.53
2024-01-11T03:19:16.551Z,103167.53
2024-01-11T03:21:46.421Z,103166.75
2024-01-11T03:24:15.706Z,103161.88
2024-01-11T03:26:44.174Z,103161.09
2024-01-11T03:29:12.603Z,103164.72
2024-01-11T03:31:44.353Z,103155.31
2024-01-11T03:34:12.924Z,103153.88
2024-01-11T03:36:41.786Z,103153.16
2024-01-11T03:39:10.223Z,103156.69
2024-01-11T03:41:38.890Z,103160.88
2024-01-11T03:44:08.982Z,103159.19
2024-01-11T03:46:37.746Z,103163.00
2024-01-11T03:49:08.849Z,103162.69
2024-01-11T03:51:38.500Z,103174.47
2024-01-11T03:54:07.119Z,103180.47
2024-01-11T03:56:35.558Z,103175.38
2024-01-11T03:59:03.981Z,103166.47
2024-01-11T04:01:32.395Z,103185.91
2024-01-11T04:04:00.759Z,103162.59
2024-01-11T04:06:30.657Z,103185.91
2024-01-11T04:08:59.187Z,103173.56
2024-01-11T04:11:30.334Z,103153.91
2024-01-11T04:13:58.953Z,103169.63
2024-01-11T04:16:27.440Z,103180.69
2024-01-11T04:18:55.969Z,103178.91
2024-01-11T04:21:25.481Z,103173.69
2024-01-11T04:23:55.282Z,103154.78
2024-01-11T04:26:24.251Z,103160.47
2024-01-11T04:28:56.398Z,103192.59
2024-01-11T04:31:26.485Z,103190.19
2024-01-11T04:33:55.350Z,103190.09
2024-01-11T04:36:23.739Z,103199.72
2024-01-11T04:38:52.110Z,103196.88
2024-01-11T04:41:21.996Z,103203.34
2024-01-11T04:43:50.441Z,103174.94
2024-01-11T04:46:19.407Z,103215.00
2024-01-11T04:48:50.037Z,103200.63
2024-01-11T04:51:20.535Z,103209.13
2024-01-11T04:53:48.280Z,103216.94
2024-01-11T04:56:18.627Z,103229.41
2024-01-11T04:58:49.441Z,103228.03
2024-01-11T05:01:19.113Z,103219.53
2024-01-11T05:03:50.370Z,103222.81
2024-01-11T05:06:19.511Z,103227.66
2024-01-11T05:08:49.368Z,103224.63
2024-01-11T05:11:19.618Z,103221.34
2024-01-11T05:13:50.755Z,103237.75
2024-01-11T05:16:22.043Z,103237.06
2024-01-11T05:18:51.041Z,103252.25
2024-01-11T05:21:19.771Z,103253.94
2024-01-11T05:23:48.417Z,103247.25
2024-01-11T05:26:18.522Z,103242.28
2024-01-11T05:28:48.482Z,103074.63
2024-01-11T05:31:18.796Z,103186.28
2024-01-11T05:33:48.888Z,103227.66
2024-01-11T05:36:17.925Z,103227.81
2024-01-11T05:38:47.806Z,103221.44
2024-01-11T05:41:16.490Z,103220.78
2024-01-11T05:43:45.617Z,103246.25
2024-01-11T05:46:15.429Z,103233.22
2024-01-11T05:48:44.482Z,103232.00
2024-01-11T05:51:13.341Z,103241.69
2024-01-11T05:53:41.699Z,103221.91
2024-01-11T05:56:11.351Z,103241.38
2024-01-11T05:58:40.156Z,103232.09
2024-01-11T06:01:08.789Z,103246.59
2024-01-11T06:03:39.767Z,103260.63
2024-01-11T06:06:09.366Z,103194.75
2024-01-11T06:08:38.285Z,103244.56
2024-01-11T06:11:08.822Z,103238.44
2024-01-11T06:13:37.645Z,103222.47
2024-01-11T06:16:07.534Z,103210.16
2024-01-11T06:18:39.004Z,103239.00
2024-01-11T06:21:07.575Z,103245.78
2024-01-11T06:23:36.045Z,103249.06
2024-01-11T06:26:04.638Z,103254.25
2024-01-11T06:28:36.252Z,103257.66
2024-01-11T06:31:05.823Z,103248.38
2024-01-11T06:33:38.179Z,103238.88
2024-01-11T06:36:09.705Z,103251.78
2024-01-11T06:38:38.315Z,103247.13
2024-01-11T06:41:06.887Z,103226.28
2024-01-11T06:43:35.263Z,103277.97
2024-01-11T06:46:06.284Z,103143.13
2024-01-11T06:48:35.043Z,103278.78
2024-01-11T06:51:03.834Z,103262.22
2024-01-11T06:53:33.732Z,103292.38
2024-01-11T06:56:02.211Z,103291.66
2024-01-11T06:58:30.627Z,103293.72
2024-01-11T07:00:59.305Z,103126.84
2024-01-11T07:03:27.962Z,103303.56
2024-01-11T07:05:56.534Z,103312.91
2024-01-11T07:08:25.002Z,103313.97
2024-01-11T07:10:54.700Z,103306.53
2024-01-11T07:13:23.054Z,103316.28
2024-01-11T07:15:52.921Z,103321.03
2024-01-11T07:18:21.434Z,103320.13
2024-01-11T07:20:50.037Z,103313.56
2024-01-11T07:23:19.130Z,103315.94
2024-01-11T07:25:48.988Z,103311.50
2024-01-11T07:28:27.648Z,103317.63
2024-01-11T07:31:01.440Z,103299.53
2024-01-11T07:33:31.492Z,103299.88
2024-01-11T07:36:00.878Z,103298.84
2024-01-11T07:38:30.388Z,103302.59
2024-01-11T07:40:59.703Z,103302.03
2024-01-11T07:43:32.360Z,103297.38
2024-01-11T07:46:08.813Z,103312.22
2024-01-11T07:48:37.442Z,103276.44
2024-01-11T07:51:06.341Z,103297.38
2024-01-11T07:53:34.819Z,103298.41
2024-01-11T07:56:03.272Z,103290.69
2024-01-11T07:58:33.016Z,103299.31
2024-01-11T08:01:01.485Z,103297.63
2024-01-11T08:03:29.948Z,103293.78
2024-01-11T08:05:58.537Z,103296.16
2024-01-11T08:08:27.453Z,103293.09
2024-01-11T08:10:56.146Z,103261.94
2024-01-11T08:13:24.554Z,103304.06
2024-01-11T08:15:54.672Z,103307.88
2024-01-11T08:18:23.147Z,103304.38
2024-01-11T08:20:51.750Z,103317.75
2024-01-11T08:23:26.087Z,103317.53
2024-01-11T08:25:56.815Z,103326.84
2024-01-11T08:28:25.116Z,103318.44
2024-01-11T08:30:54.946Z,103322.16
2024-01-11T08:33:23.479Z,103324.25
2024-01-11T08:35:52.209Z,103326.66
2024-01-11T08:38:20.755Z,103331.38
2024-01-11T08:40:49.576Z,103283.16
2024-01-11T08:43:18.230Z,103323.25
2024-01-11T08:45:47.920Z,103331.09
2024-01-11T08:48:18.731Z,103335.13
2024-01-11T08:50:47.251Z,103338.34
2024-01-11T08:53:16.862Z,103342.28
2024-01-11T08:55:47.283Z,103344.72
2024-01-11T08:58:16.196Z,103339.88
2024-01-11T09:00:45.242Z,103339.06
2024-01-11T09:03:15.103Z,103341.72
2024-01-11T09:05:45.336Z,103356.66
2024-01-11T09:08:13.880Z,103361.63
2024-01-11T09:10:42.945Z,103354.75
2024-01-11T09:13:13.249Z,103360.38
2024-01-11T09:15:44.349Z,103373.31
2024-01-11T09:18:13.129Z,103370.75
2024-01-11T09:20:41.708Z,103372.34
2024-01-11T09:23:11.517Z,103376.50
2024-01-11T09:25:40.360Z,103387.91
2024-01-11T09:28:08.823Z,103382.50
2024-01-11T09:30:37.242Z,103353.06
2024-01-11T09:33:07.610Z,103398.97
2024-01-11T09:35:36.293Z,103382.41
2024-01-11T09:38:05.167Z,103420.03
2024-01-11T09:40:35.091Z,103293.31
2024-01-11T09:43:07.198Z,103420.47
2024-01-11T09:45:37.110Z,103427.94
2024-01-11T09:48:07.921Z,103422.19
2024-01-11T09:50:37.545Z,103433.03
2024-01-11T09:53:09.508Z,103295.28
2024-01-11T09:55:39.522Z,103448.09
2024-01-11T09:58:09.755Z,103442.66
2024-01-11T10:00:38.598Z,103444.72
2024-01-11T10:03:07.439Z,103445.16
2024-01-11T10:05:37.853Z,103449.53
2024-01-11T10:08:07.051Z,103451.13
2024-01-11T10:10:35.711Z,103456.25
2024-01-11T10:13:07.271Z,103444.34
2024-01-11T10:15:35.921Z,103456.34
2024-01-11T10:18:05.103Z,103464.41
2024-01-11T10:20:34.090Z,103458.34
2024-01-11T10:23:02.851Z,103443.22
2024-01-11T10:25:32.029Z,103436.00
2024-01-11T10:28:01.109Z,103436.25
2024-01-11T10:30:30.888Z,103411.88
2024-01-11T10:33:00.742Z,103423.25
2024-01-11T10:35:29.356Z,103431.22
2024-01-11T10:38:00.979Z,103423.34
2024-01-11T10:40:30.849Z,103421.84
2024-01-11T10:43:02.762Z,103410.31
2024-01-11T10:45:42.280Z,103412.31
2024-01-11T10:48:16.711Z,103413.78
2024-01-11T10:50:47.467Z,103416.84
2024-01-11T10:53:30.734Z,103414.31
2024-01-11T10:56:01.507Z,103430.25
2024-01-11T10:58:30.429Z,103414.63
2024-01-11T11:01:01.832Z,103439.13
2024-01-11T11:03:32.737Z,103403.13
2024-01-11T11:06:01.947Z,103446.09
2024-01-11T11:08:30.816Z,103424.88
2024-01-11T11:11:00.645Z,103439.50
2024-01-11T11:13:29.864Z,103445.47
2024-01-11T11:16:02.087Z,103444.56
2024-01-11T11:18:32.040Z,103450.19
2024-01-11T11:21:00.748Z,103441.84
2024-01-11T11:23:29.244Z,103444.19
2024-01-11T11:25:59.025Z,103436.44
2024-01-11T11:28:28.906Z,103438.22
2024-01-11T11:30:58.870Z,103432.63
2024-01-11T11:33:28.898Z,103429.72
2024-01-11T11:36:00.193Z,103434.00
2024-01-11T11:38:30.810Z,103417.16
2024-01-11T11:41:01.252Z,103403.16
2024-01-11T11:43:31.403Z,103429.72
2024-01-11T11:46:03.879Z,103423.06
2024-01-11T11:48:56.778Z,103434.53
2024-01-11T11:51:28.795Z,103389.03
2024-01-11T11:53:58.205Z,103449.78
2024-01-11T11:56:27.004Z,103425.91
2024-01-11T11:58:56.704Z,103430.16
2024-01-11T12:01:25.660Z,103431.53
2024-01-11T12:03:55.925Z,103415.22
2024-01-11T12:06:26.701Z,103413.41
2024-01-11T12:08:57.843Z,103389.47
2024-01-11T12:11:27.902Z,103415.59
2024-01-11T12:13:58.911Z,103408.09
2024-01-11T12:16:28.633Z,103284.44
2024-01-11T12:18:59.151Z,103405.44
2024-01-11T12:21:28.426Z,103397.81
2024-01-11T12:24:04.410Z,103360.94
2024-01-11T12:26:33.112Z,103389.56
2024-01-11T12:29:01.976Z,103387.72
2024-01-11T12:31:30.612Z,103380.78
2024-01-11T12:34:00.598Z,103385.56
2024-01-11T12:36:29.363Z,103232.13
2024-01-11T12:38:57.827Z,103367.19
2024-01-11T12:41:26.668Z,103386.66
2024-01-11T12:43:55.658Z,103371.66
2024-01-11T12:46:24.765Z,103370.13
2024-01-11T12:48:53.906Z,103368.50
2024-01-11T12:51:24.198Z,103361.72
2024-01-11T12:53:55.011Z,103367.31
2024-01-11T12:56:24.574Z,103355.31
2024-01-11T12:58:53.630Z,103353.56
2024-01-11T13:01:22.539Z,103359.91
2024-01-11T13:03:51.564Z,103348.69
2024-01-11T13:06:20.797Z,103360.91
2024-01-11T13:08:51.604Z,103344.28
2024-01-11T13:11:22.507Z,103358.50
2024-01-11T13:13:51.128Z,103352.31
2024-01-11T13:16:20.483Z,103359.81
2024-01-11T13:18:49.656Z,103363.91
2024-01-11T13:21:18.277Z,103357.91
2024-01-11T13:23:47.119Z,103350.19
2024-01-11T13:26:17.499Z,103353.88
2024-01-11T13:28:45.915Z,103338.97
2024-01-11T13:31:14.548Z,103348.31
2024-01-11T13:33:43.039Z,103339.88
2024-01-11T13:36:11.595Z,103335.88
2024-01-11T13:38:40.224Z,103330.34
2024-01-11T13:41:09.564Z,103327.06
2024-01-11T13:43:39.694Z,103322.03
2024-01-11T13:46:08.335Z,103324.91
2024-01-11T13:48:36.874Z,103312.91
2024-01-11T13:51:06.249Z,103314.47
2024-01-11T13:53:34.849Z,103323.34
2024-01-11T13:56:03.602Z,103335.50
2024-01-11T13:58:32.623Z,103316.09
2024-01-11T14:01:03.070Z,103322.28
2024-01-11T14:03:31.561Z,103318.59
2024-01-11T14:06:01.514Z,103313.47
2024-01-11T14:08:31.554Z,103324.31
2024-01-11T14:11:00.081Z,103325.38
2024-01-11T14:13:28.504Z,103322.00
2024-01-11T14:15:56.882Z,103329.91
2024-01-11T14:18:27.442Z,103331.69
2024-01-11T14:20:55.872Z,103332.41
2024-01-11T14:23:24.348Z,103333.59
2024-01-11T14:25:52.935Z,103327.66
2024-01-11T14:28:22.036Z,103329.31
2024-01-11T14:30:51.408Z,103325.03
2024-01-11T14:33:21.460Z,103325.94
2024-01-11T14:35:51.431Z,103319.13
2024-01-11T14:38:19.903Z,103310.31
2024-01-11T14:40:48.454Z,103296.97
2024-01-11T14:43:17.333Z,103307.53
2024-01-11T14:45:46.086Z,103304.75
2024-01-11T14:48:14.758Z,103305.66
2024-01-11T14:50:44.423Z,103314.44
2024-01-11T14:53:15.356Z,103305.66
2024-01-11T14:55:43.859Z,103303.75
2024-01-11T14:58:12.283Z,103297.44
2024-01-11T15:00:40.826Z,103300.31
2024-01-11T15:03:09.593Z,103301.88
2024-01-11T15:05:38.517Z,103298.09
2024-01-11T15:08:07.491Z,103291.94
2024-01-11T15:10:38.012Z,103285.56
2024-01-11T15:13:06.615Z,103286.88
2024-01-11T15:15:37.339Z,103291.09
2024-01-11T15:18:07.591Z,103296.91
2024-01-11T15:20:36.410Z,103295.50
2024-01-11T15:23:06.625Z,103294.69
2024-01-11T15:25:36.481Z,103278.94
2024-01-11T15:28:05.485Z,103291.41
2024-01-11T15:30:34.220Z,103287.72
2024-01-11T15:33:03.303Z,103289.44
2024-01-11T15:35:32.089Z,103293.78
2024-01-11T15:38:00.636Z,103293.25
2024-01-11T15:40:29.070Z,103293.25
2024-01-11T15:42:58.934Z,103299.59
2024-01-11T15:45:27.445Z,103291.63
2024-01-11T15:47:55.917Z,103206.13
2024-01-11T15:50:26.076Z,103300.59
2024-01-11T15:52:54.558Z,103312.31
2024-01-11T15:55:22.992Z,103301.59
2024-01-11T15:57:53.762Z,103302.81
2024-01-11T16:00:24.283Z,103184.59
2024-01-11T16:02:52.879Z,103294.34
2024-01-11T16:05:21.992Z,103296.31
2024-01-11T16:07:50.420Z,103295.47
2024-01-11T16:10:19.146Z,103285.69
2024-01-11T16:12:47.607Z,103282.09
2024-01-11T16:15:17.437Z,103288.25
2024-01-11T16:17:48.135Z,103290.50
2024-01-11T16:20:16.893Z,103290.34
2024-01-11T16:22:45.236Z,103277.38
2024-01-11T16:25:13.636Z,103286.72
2024-01-11T16:27:42.101Z,103290.03
2024-01-11T16:30:12.681Z,103288.38
2024-01-11T16:32:41.249Z,103285.91
2024-01-11T16:35:11.450Z,103278.75
2024-01-11T16:37:39.820Z,103282.47
2024-01-11T16:40:11.215Z,103273.50
2024-01-11T16:42:40.316Z,103284.19
2024-01-11T16:45:11.062Z,103283.19
2024-01-11T16:47:39.762Z,103282.47
2024-01-11T16:50:11.070Z,103285.75
2024-01-11T16:52:39.957Z,103280.38
2024-01-11T16:55:09.471Z,103280.91
2024-01-11T16:57:38.182Z,103267.94
2024-01-11T17:00:08.646Z,103271.13
2024-01-11T17:02:38.628Z,103274.84
2024-01-11T17:05:08.553Z,103264.28
2024-01-11T17:07:38.905Z,103266.69
2024-01-11T17:10:08.292Z,103271.78
2024-01-11T17:12:36.766Z,103274.41
2024-01-11T17:15:06.095Z,103270.00
2024-01-11T17:17:34.937Z,103277.94
2024-01-11T17:20:04.002Z,103282.63
2024-01-11T17:22:32.405Z,103276.56
2024-01-11T17:25:02.277Z,103275.91
2024-01-11T17:27:30.695Z,103264.88
2024-01-11T17:29:59.182Z,103272.69
2024-01-11T17:32:27.858Z,103276.16
2024-01-11T17:34:57.208Z,103256.53
2024-01-11T17:37:26.904Z,103265.88
2024-01-11T17:39:55.581Z,103281.16
2024-01-11T17:42:25.331Z,103291.81
2024-01-11T17:44:53.732Z,103285.50
2024-01-11T17:47:22.111Z,103289.13
2024-01-11T17:49:50.680Z,103282.03
2024-01-11T17:52:20.250Z,103283.13
2024-01-11T17:54:48.661Z,103287.47
2024-01-11T17:57:17.123Z,103278.53
2024-01-11T17:59:47.227Z,103172.66
2024-01-11T18:02:15.757Z,103281.16
2024-01-11T18:04:44.565Z,103274.09
2024-01-11T18:07:13.137Z,103275.81
2024-01-11T18:09:41.589Z,103265.41
2024-01-11T18:12:10.138Z,103265.53
2024-01-11T18:14:38.495Z,103265.53
2024-01-11T18:17:09.392Z,103263.66
2024-01-11T18:19:37.840Z,103253.19
2024-01-11T18:22:06.649Z,103267.69
2024-01-11T18:24:35.127Z,103258.88
2024-01-11T18:27:07.165Z,103262.44
2024-01-11T18:29:36.148Z,103259.69
2024-01-11T18:32:05.396Z,103267.44
2024-01-11T18:34:35.650Z,103269.38
2024-01-11T18:37:04.172Z,103270.31
2024-01-11T18:39:32.546Z,103275.97
2024-01-11T18:42:01.940Z,103276.06
2024-01-11T18:44:31.561Z,103271.78
2024-01-11T18:46:59.997Z,103277.25
2024-01-11T18:49:28.400Z,103266.59
2024-01-11T18:51:58.210Z,103274.78
2024-01-11T18:54:27.327Z,103280.34
2024-01-11T18:56:55.759Z,103282.53
2024-01-11T18:59:24.692Z,103278.03
2024-01-11T19:01:53.259Z,103283.06
2024-01-11T19:04:21.825Z,103283.06
2024-01-11T19:06:51.238Z,103280.44
2024-01-11T19:09:21.288Z,103266.25
2024-01-11T19:11:51.702Z,103270.06
2024-01-11T19:14:20.142Z,103269.84
2024-01-11T19:16:48.718Z,103271.56
2024-01-11T19:19:17.227Z,103264.16
2024-01-11T19:21:45.732Z,103269.75
2024-01-11T19:24:14.295Z,103275.72
2024-01-11T19:26:49.007Z,103278.34
2024-01-11T19:29:18.152Z,103269.47
2024-01-11T19:31:47.209Z,103280.13
2024-01-11T19:34:15.826Z,103289.50
2024-01-11T19:36:44.312Z,103276.97
2024-01-11T19:39:13.781Z,103279.97
2024-01-11T19:41:43.735Z,103287.47
2024-01-11T19:44:12.344Z,103292.88
2024-01-11T19:46:42.266Z,103290.16
2024-01-11T19:49:11.533Z,103297.25
2024-01-11T19:51:40.456Z,103296.25
2024-01-11T19:54:11.806Z,103288.53
2024-01-11T19:56:40.193Z,103273.75
2024-01-11T19:59:10.149Z,103286.88
2024-01-11T20:01:38.639Z,103289.72
2024-01-11T20:04:07.566Z,103281.41
2024-01-11T20:06:36.020Z,103275.72
2024-01-11T20:09:05.320Z,103278.88
2024-01-11T20:11:33.991Z,103288.50
2024-01-11T20:14:02.943Z,103284.81
2024-01-11T20:16:32.775Z,103280.09
2024-01-11T20:19:01.465Z,103291.19
2024-01-11T20:21:30.023Z,103287.28
2024-01-11T20:23:58.389Z,103293.13
2024-01-11T20:26:28.645Z,103292.50
2024-01-11T20:28:58.183Z,103297.44
2024-01-11T20:31:27.369Z,103302.19
2024-01-11T20:33:59.779Z,103298.72
2024-01-11T20:36:28.374Z,103300.94
2024-01-11T20:38:57.459Z,103301.91
2024-01-11T20:41:25.986Z,103302.72
2024-01-11T20:43:54.854Z,103310.63
2024-01-11T20:46:24.157Z,103307.47
2024-01-11T20:48:52.938Z,103305.88
2024-01-11T20:51:22.782Z,103306.56
2024-01-11T20:53:56.155Z,103310.78
2024-01-11T20:56:24.995Z,103306.97
2024-01-11T20:58:53.923Z,103308.22
2024-01-11T21:01:22.311Z,103312.81
2024-01-11T21:03:51.059Z,103313.66
2024-01-11T21:06:19.765Z,103312.19
2024-01-11T21:08:49.638Z,103310.69
2024-01-11T21:11:21.844Z,103007.91
2024-01-11T21:13:50.516Z,103308.28
2024-01-11T21:16:18.920Z,103306.84
2024-01-11T21:18:49.884Z,103305.94
2024-01-11T21:21:19.032Z,103313.31
2024-01-11T21:23:47.671Z,103311.44
2024-01-11T21:26:17.493Z,103317.72
2024-01-11T21:28:50.951Z,103321.22
2024-01-11T21:31:19.424Z,103315.25
2024-01-11T21:33:48.078Z,103314.34
2024-01-11T21:36:17.646Z,103313.44
2024-01-11T21:38:46.464Z,103317.31
2024-01-11T21:41:16.392Z,103315.72
2024-01-11T21:43:44.774Z,103320.94
2024-01-11T21:46:13.780Z,103317.09
2024-01-11T21:48:42.628Z,103334.66
2024-01-11T21:51:12.838Z,103321.97
2024-01-11T21:53:41.714Z,103319.22
2024-01-11T21:56:09.360Z,103321.34
2024-01-11T21:58:39.337Z,103328.56
2024-01-11T22:01:08.431Z,103327.47
2024-01-11T22:03:37.087Z,103320.44
2024-01-11T22:06:06.787Z,103323.97
2024-01-11T22:08:35.319Z,103325.22
2024-01-11T22:11:03.852Z,103328.97
2024-01-11T22:13:32.189Z,103327.19
2024-01-11T22:16:02.947Z,103330.78
2024-01-11T22:18:31.545Z,103326.50
2024-01-11T22:21:02.520Z,103322.94
2024-01-11T22:23:31.436Z,103334.53
2024-01-11T22:25:59.930Z,103333.47
2024-01-11T22:28:29.336Z,103289.91
2024-01-11T22:30:57.762Z,103332.00
2024-01-11T22:33:28.212Z,103323.41
2024-01-11T22:35:57.243Z,103328.84
2024-01-11T22:38:26.184Z,103330.50
2024-01-11T22:40:54.832Z,103326.34
2024-01-11T22:43:23.184Z,103321.13
2024-01-11T22:45:51.601Z,103325.34
2024-01-11T22:48:20.786Z,103182.53
2024-01-11T22:50:50.711Z,103319.63
2024-01-11T22:53:19.279Z,103319.47
2024-01-11T22:55:47.776Z,103307.81
2024-01-11T22:58:16.908Z,103324.66
2024-01-11T23:00:46.038Z,103309.78
2024-01-11T23:03:14.573Z,103322.03
2024-01-11T23:05:43.127Z,103323.22
2024-01-11T23:08:12.923Z,103320.44
2024-01-11T23:10:41.349Z,103310.47
2024-01-11T23:13:09.876Z,103308.56
2024-01-11T23:15:38.313Z,103311.28
2024-01-11T23:18:07.550Z,103183.09
2024-01-11T23:20:36.085Z,103315.50
2024-01-11T23:23:04.818Z,103311.22
2024-01-11T23:25:34.748Z,103315.56
2024-01-11T23:28:04.448Z,103320.31
2024-01-11T23:30:35.407Z,103302.50
2024-01-11T23:33:03.998Z,103314.13
2024-01-11T23:35:32.400Z,103305.41
2024-01-11T23:38:00.884Z,103309.88
2024-01-11T23:40:29.290Z,103298.31
2024-01-11T23:42:59.146Z,103309.19
2024-01-11T23:45:27.539Z,103310.41
2024-01-11T23:47:55.974Z,103314.28
2024-01-11T23:50:24.535Z,103316.91
2024-01-11T23:52:52.909Z,103321.13
2024-01-11T23:55:21.392Z,103320.31
2024-01-11T23:57:49.842Z,103325.91
